sensor_id;sensor_type;location;lat;lon;timestamp;pressure;altitude;pressure_sealevel;temperature;humidity
11444;BME280;5778;47.856;12.154;2023-02-15T00:01:26;97718.50;;;0.77;100.00
11444;BME280;5778;47.856;12.154;2023-02-15T00:03:53;97713.03;;;0.96;100.00
11444;BME280;5778;47.856;12.154;2023-02-15T00:06:20;97707.06;;;0.78;100.00
11444;BME280;5778;47.856;12.154;2023-02-15T00:08:52;97703.97;;;0.83;100.00
11444;BME280;5778;47.856;12.154;2023-02-15T00:11:20;97697.22;;;0.72;100.00
11444;BME280;5778;47.856;12.154;2023-02-15T00:14:06;97697.13;;;0.82;100.00
11444;BME280;5778;47.856;12.154;2023-02-15T00:16:34;97701.38;;;0.91;100.00
11444;BME280;5778;47.856;12.154;2023-02-15T00:19:02;97694.44;;;0.74;100.00
11444;BME280;5778;47.856;12.154;2023-02-15T00:21:30;97690.69;;;0.68;100.00
11444;BME280;5778;47.856;12.154;2023-02-15T00:24:01;97686.94;;;0.79;100.00
11444;BME280;5778;47.856;12.154;2023-02-15T00:26:28;97686.28;;;0.77;100.00
11444;BME280;5778;47.856;12.154;2023-02-15T00:28:56;97681.97;;;0.60;100.00
11444;BME280;5778;47.856;12.154;2023-02-15T00:31:26;97677.53;;;0.60;100.00
11444;BME280;5778;47.856;12.154;2023-02-15T00:33:56;97680.34;;;0.67;100.00
11444;BME280;5778;47.856;12.154;2023-02-15T00:36:27;97685.91;;;0.64;100.00
11444;BME280;5778;47.856;12.154;2023-02-15T00:38:54;97686.88;;;0.63;100.00
11444;BME280;5778;47.856;12.154;2023-02-15T00:41:25;97679.69;;;0.65;100.00
11444;BME280;5778;47.856;12.154;2023-02-15T00:43:51;97680.22;;;0.43;100.00
11444;BME280;5778;47.856;12.154;2023-02-15T00:46:18;97676.84;;;0.50;100.00
11444;BME280;5778;47.856;12.154;2023-02-15T00:48:45;97681.00;;;0.61;100.00
11444;BME280;5778;47.856;12.154;2023-02-15T00:51:12;97685.94;;;0.72;100.00
11444;BME280;5778;47.856;12.154;2023-02-15T00:53:39;97677.75;;;0.67;100.00
11444;BME280;5778;47.856;12.154;2023-02-15T00:56:06;97679.56;;;0.74;100.00
11444;BME280;5778;47.856;12.154;2023-02-15T00:58:35;97682.47;;;0.63;100.00
11444;BME280;5778;47.856;12.154;2023-02-15T01:01:03;97677.97;;;0.48;100.00
11444;BME280;5778;47.856;12.154;2023-02-15T01:03:32;97678.44;;;0.43;100.00
11444;BME280;5778;47.856;12.154;2023-02-15T01:05:58;97671.28;;;0.20;100.00
11444;BME280;5778;47.856;12.154;2023-02-15T01:08:26;97669.66;;;0.19;100.00
11444;BME280;5778;47.856;12.154;2023-02-15T01:10:53;97673.44;;;-0.01;100.00
11444;BME280;5778;47.856;12.154;2023-02-15T01:13:20;97666.91;;;-0.05;100.00
11444;BME280;5778;47.856;12.154;2023-02-15T01:15:53;97664.88;;;-0.11;100.00
11444;BME280;5778;47.856;12.154;2023-02-15T01:18:20;97668.16;;;-0.09;100.00
11444;BME280;5778;47.856;12.154;2023-02-15T01:20:51;97669.50;;;-0.05;100.00
11444;BME280;5778;47.856;12.154;2023-02-15T01:23:18;97667.50;;;-0.11;100.00
11444;BME280;5778;47.856;12.154;2023-02-15T01:25:45;97664.22;;;-0.13;100.00
11444;BME280;5778;47.856;12.154;2023-02-15T01:28:12;97663.25;;;-0.12;100.00
11444;BME280;5778;47.856;12.154;2023-02-15T01:30:41;97667.19;;;-0.08;100.00
11444;BME280;5778;47.856;12.154;2023-02-15T01:33:09;97661.09;;;0.09;100.00
11444;BME280;5778;47.856;12.154;2023-02-15T01:35:44;97660.97;;;0.18;100.00
11444;BME280;5778;47.856;12.154;2023-02-15T01:38:13;97659.69;;;0.22;100.00
11444;BME280;5778;47.856;12.154;2023-02-15T01:40:40;97660.81;;;0.20;100.00
11444;BME280;5778;47.856;12.154;2023-02-15T01:43:10;97656.31;;;0.38;100.00
11444;BME280;5778;47.856;12.154;2023-02-15T01:45:37;97651.81;;;0.48;100.00
11444;BME280;5778;47.856;12.154;2023-02-15T01:48:16;97653.53;;;0.31;100.00
11444;BME280;5778;47.856;12.154;2023-02-15T01:50:48;97651.44;;;0.35;100.00
11444;BME280;5778;47.856;12.154;2023-02-15T01:53:25;97645.81;;;0.22;100.00
11444;BME280;5778;47.856;12.154;2023-02-15T01:55:55;97638.63;;;0.24;100.00
11444;BME280;5778;47.856;12.154;2023-02-15T01:58:25;97638.00;;;0.30;100.00
11444;BME280;5778;47.856;12.154;2023-02-15T02:00:53;97636.72;;;0.42;100.00
11444;BME280;5778;47.856;12.154;2023-02-15T02:03:29;97632.50;;;0.49;100.00
11444;BME280;5778;47.856;12.154;2023-02-15T02:06:03;97628.59;;;0.53;100.00
11444;BME280;5778;47.856;12.154;2023-02-15T02:08:30;97626.69;;;0.63;100.00
11444;BME280;5778;47.856;12.154;2023-02-15T02:10:57;97632.41;;;0.58;100.00
11444;BME280;5778;47.856;12.154;2023-02-15T02:13:25;97627.56;;;0.38;100.00
11444;BME280;5778;47.856;12.154;2023-02-15T02:15:57;97625.84;;;0.21;100.00
11444;BME280;5778;47.856;12.154;2023-02-15T02:18:37;97623.00;;;0.40;100.00
11444;BME280;5778;47.856;12.154;2023-02-15T02:21:36;97620.97;;;0.26;100.00
11444;BME280;5778;47.856;12.154;2023-02-15T02:27:29;97613.81;;;0.36;100.00
11444;BME280;5778;47.856;12.154;2023-02-15T02:30:25;97611.91;;;0.54;100.00
11444;BME280;5778;47.856;12.154;2023-02-15T02:33:10;97609.63;;;0.51;100.00
11444;BME280;5778;47.856;12.154;2023-02-15T02:35:47;97609.34;;;0.62;100.00
11444;BME280;5778;47.856;12.154;2023-02-15T02:38:23;97604.75;;;0.64;100.00
11444;BME280;5778;47.856;12.154;2023-02-15T02:41:02;97600.84;;;0.60;100.00
11444;BME280;5778;47.856;12.154;2023-02-15T02:43:41;97597.53;;;0.58;100.00
11444;BME280;5778;47.856;12.154;2023-02-15T02:46:15;97594.28;;;0.64;100.00
11444;BME280;5778;47.856;12.154;2023-02-15T02:48:46;97595.13;;;0.64;100.00
11444;BME280;5778;47.856;12.154;2023-02-15T02:51:15;97586.88;;;0.51;100.00
11444;BME280;5778;47.856;12.154;2023-02-15T02:53:49;97592.59;;;0.47;100.00
11444;BME280;5778;47.856;12.154;2023-02-15T02:56:21;97590.97;;;0.54;100.00
11444;BME280;5778;47.856;12.154;2023-02-15T02:58:56;97591.28;;;0.43;100.00
11444;BME280;5778;47.856;12.154;2023-02-15T03:01:29;97594.69;;;0.35;100.00
11444;BME280;5778;47.856;12.154;2023-02-15T03:04:03;97583.06;;;0.38;100.00
11444;BME280;5778;47.856;12.154;2023-02-15T03:06:38;97577.81;;;0.22;100.00
11444;BME280;5778;47.856;12.154;2023-02-15T03:09:17;97580.13;;;0.33;100.00
11444;BME280;5778;47.856;12.154;2023-02-15T03:11:48;97580.34;;;0.47;100.00
11444;BME280;5778;47.856;12.154;2023-02-15T03:14:17;97576.91;;;0.47;100.00
11444;BME280;5778;47.856;12.154;2023-02-15T03:16:47;97578.03;;;0.36;100.00
11444;BME280;5778;47.856;12.154;2023-02-15T03:19:19;97577.69;;;0.39;100.00
11444;BME280;5778;47.856;12.154;2023-02-15T03:21:51;97578.75;;;0.13;100.00
11444;BME280;5778;47.856;12.154;2023-02-15T03:24:32;97580.88;;;0.17;100.00
11444;BME280;5778;47.856;12.154;2023-02-15T03:27:04;97582.50;;;0.18;100.00
11444;BME280;5778;47.856;12.154;2023-02-15T03:29:33;97571.25;;;0.18;100.00
11444;BME280;5778;47.856;12.154;2023-02-15T03:32:04;97574.50;;;0.12;100.00
11444;BME280;5778;47.856;12.154;2023-02-15T03:34:34;97576.41;;;0.10;100.00
11444;BME280;5778;47.856;12.154;2023-02-15T03:37:06;97567.63;;;0.11;100.00
11444;BME280;5778;47.856;12.154;2023-02-15T03:39:38;97575.63;;;0.09;100.00
11444;BME280;5778;47.856;12.154;2023-02-15T03:42:11;97566.28;;;0.07;100.00
11444;BME280;5778;47.856;12.154;2023-02-15T03:44:49;97573.81;;;0.10;100.00
11444;BME280;5778;47.856;12.154;2023-02-15T03:47:19;97576.47;;;0.18;100.00
11444;BME280;5778;47.856;12.154;2023-02-15T03:49:51;97571.53;;;0.15;100.00
11444;BME280;5778;47.856;12.154;2023-02-15T03:52:20;97575.19;;;0.22;100.00
11444;BME280;5778;47.856;12.154;2023-02-15T03:54:48;97572.28;;;0.33;100.00
11444;BME280;5778;47.856;12.154;2023-02-15T03:57:18;97569.97;;;0.30;100.00
11444;BME280;5778;47.856;12.154;2023-02-15T04:00:06;97572.69;;;0.12;100.00
11444;BME280;5778;47.856;12.154;2023-02-15T04:03:09;97564.81;;;0.04;100.00
11444;BME280;5778;47.856;12.154;2023-02-15T04:05:39;97560.09;;;0.08;100.00
11444;BME280;5778;47.856;12.154;2023-02-15T04:08:06;97571.31;;;0.00;100.00
11444;BME280;5778;47.856;12.154;2023-02-15T04:10:33;97567.44;;;0.12;100.00
11444;BME280;5778;47.856;12.154;2023-02-15T04:13:17;97569.00;;;0.31;100.00
11444;BME280;5778;47.856;12.154;2023-02-15T04:15:44;97565.38;;;0.24;100.00
11444;BME280;5778;47.856;12.154;2023-02-15T04:18:28;97577.19;;;0.28;100.00
11444;BME280;5778;47.856;12.154;2023-02-15T04:21:13;97568.34;;;0.29;100.00
11444;BME280;5778;47.856;12.154;2023-02-15T04:23:57;97567.38;;;0.38;100.00
11444;BME280;5778;47.856;12.154;2023-02-15T04:26:41;97578.66;;;0.38;100.00
11444;BME280;5778;47.856;12.154;2023-02-15T04:29:08;97571.94;;;0.28;100.00
11444;BME280;5778;47.856;12.154;2023-02-15T04:31:35;97583.22;;;0.28;100.00
11444;BME280;5778;47.856;12.154;2023-02-15T04:34:02;97575.84;;;0.24;100.00
11444;BME280;5778;47.856;12.154;2023-02-15T04:36:30;97585.16;;;-0.07;100.00
11444;BME280;5778;47.856;12.154;2023-02-15T04:38:57;97589.53;;;-0.16;100.00
11444;BME280;5778;47.856;12.154;2023-02-15T04:41:24;97588.53;;;-0.48;100.00
11444;BME280;5778;47.856;12.154;2023-02-15T04:43:51;97597.22;;;-0.65;100.00
11444;BME280;5778;47.856;12.154;2023-02-15T04:46:18;97591.78;;;-0.89;100.00
11444;BME280;5778;47.856;12.154;2023-02-15T04:48:45;97591.13;;;-0.91;100.00
11444;BME280;5778;47.856;12.154;2023-02-15T04:51:11;97596.53;;;-0.84;100.00
11444;BME280;5778;47.856;12.154;2023-02-15T04:53:40;97602.00;;;-0.78;100.00
11444;BME280;5778;47.856;12.154;2023-02-15T04:56:06;97599.31;;;-0.86;100.00
11444;BME280;5778;47.856;12.154;2023-02-15T04:58:33;97611.63;;;-0.96;100.00
11444;BME280;5778;47.856;12.154;2023-02-15T05:01:00;97609.31;;;-0.99;100.00
11444;BME280;5778;47.856;12.154;2023-02-15T05:03:27;97615.81;;;-1.03;100.00
11444;BME280;5778;47.856;12.154;2023-02-15T05:05:54;97609.63;;;-1.02;100.00
11444;BME280;5778;47.856;12.154;2023-02-15T05:08:21;97609.16;;;-0.97;100.00
11444;BME280;5778;47.856;12.154;2023-02-15T05:10:49;97615.81;;;-1.03;100.00
11444;BME280;5778;47.856;12.154;2023-02-15T05:13:17;97616.47;;;-1.01;100.00
11444;BME280;5778;47.856;12.154;2023-02-15T05:15:47;97619.53;;;-1.05;100.00
11444;BME280;5778;47.856;12.154;2023-02-15T05:18:15;97621.47;;;-1.07;100.00
11444;BME280;5778;47.856;12.154;2023-02-15T05:20:42;97620.66;;;-1.08;100.00
11444;BME280;5778;47.856;12.154;2023-02-15T05:23:08;97622.97;;;-1.05;100.00
11444;BME280;5778;47.856;12.154;2023-02-15T05:25:35;97625.03;;;-1.08;100.00
11444;BME280;5778;47.856;12.154;2023-02-15T05:28:22;97632.16;;;-1.01;100.00
11444;BME280;5778;47.856;12.154;2023-02-15T05:30:51;97623.34;;;-1.00;100.00
11444;BME280;5778;47.856;12.154;2023-02-15T05:33:25;97622.97;;;-0.87;100.00
11444;BME280;5778;47.856;12.154;2023-02-15T05:35:53;97619.28;;;-0.77;100.00
11444;BME280;5778;47.856;12.154;2023-02-15T05:38:19;97620.88;;;-0.66;100.00
11444;BME280;5778;47.856;12.154;2023-02-15T05:40:46;97624.59;;;-0.69;100.00
11444;BME280;5778;47.856;12.154;2023-02-15T05:43:13;97623.84;;;-0.61;100.00
11444;BME280;5778;47.856;12.154;2023-02-15T05:45:44;97624.22;;;-0.74;100.00
11444;BME280;5778;47.856;12.154;2023-02-15T05:48:11;97625.50;;;-0.78;100.00
11444;BME280;5778;47.856;12.154;2023-02-15T05:50:38;97628.00;;;-0.68;100.00
11444;BME280;5778;47.856;12.154;2023-02-15T05:53:05;97637.06;;;-0.63;100.00
11444;BME280;5778;47.856;12.154;2023-02-15T05:55:32;97634.22;;;-0.52;100.00
11444;BME280;5778;47.856;12.154;2023-02-15T05:57:58;97634.34;;;-0.53;100.00
11444;BME280;5778;47.856;12.154;2023-02-15T06:00:25;97633.56;;;-0.54;100.00
11444;BME280;5778;47.856;12.154;2023-02-15T06:02:54;97629.34;;;-0.47;100.00
11444;BME280;5778;47.856;12.154;2023-02-15T06:05:20;97629.75;;;-0.34;100.00
11444;BME280;5778;47.856;12.154;2023-02-15T06:07:47;97622.44;;;-0.31;100.00
11444;BME280;5778;47.856;12.154;2023-02-15T06:10:14;97634.09;;;-0.25;100.00
11444;BME280;5778;47.856;12.154;2023-02-15T06:12:41;97633.72;;;-0.30;100.00
11444;BME280;5778;47.856;12.154;2023-02-15T06:15:08;97631.16;;;-0.22;100.00
11444;BME280;5778;47.856;12.154;2023-02-15T06:17:35;97629.16;;;-0.03;100.00
11444;BME280;5778;47.856;12.154;2023-02-15T06:20:05;97636.44;;;-0.14;100.00
11444;BME280;5778;47.856;12.154;2023-02-15T06:22:34;97630.47;;;-0.24;100.00
11444;BME280;5778;47.856;12.154;2023-02-15T06:25:01;97633.81;;;-0.14;100.00
11444;BME280;5778;47.856;12.154;2023-02-15T06:27:28;97638.44;;;-0.08;100.00
11444;BME280;5778;47.856;12.154;2023-02-15T06:29:55;97642.69;;;-0.07;100.00
11444;BME280;5778;47.856;12.154;2023-02-15T06:32:22;97637.53;;;0.01;100.00
11444;BME280;5778;47.856;12.154;2023-02-15T06:34:49;97634.53;;;-0.04;100.00
11444;BME280;5778;47.856;12.154;2023-02-15T06:37:18;97634.69;;;-0.06;100.00
11444;BME280;5778;47.856;12.154;2023-02-15T06:39:44;97633.16;;;-0.16;100.00
11444;BME280;5778;47.856;12.154;2023-02-15T06:42:11;97637.53;;;0.01;100.00
11444;BME280;5778;47.856;12.154;2023-02-15T06:44:38;97636.03;;;-0.02;100.00
11444;BME280;5778;47.856;12.154;2023-02-15T06:47:05;97634.53;;;-0.04;100.00
11444;BME280;5778;47.856;12.154;2023-02-15T06:49:33;97639.16;;;0.02;100.00
11444;BME280;5778;47.856;12.154;2023-02-15T06:52:00;97639.91;;;-0.06;100.00
11444;BME280;5778;47.856;12.154;2023-02-15T06:54:28;97629.75;;;-0.09;100.00
11444;BME280;5778;47.856;12.154;2023-02-15T06:56:55;97632.06;;;-0.06;100.00
11444;BME280;5778;47.856;12.154;2023-02-15T06:59:22;97635.91;;;0.08;100.00
11444;BME280;5778;47.856;12.154;2023-02-15T07:01:49;97633.72;;;-0.05;100.00
11444;BME280;5778;47.856;12.154;2023-02-15T07:04:16;97641.91;;;0.00;100.00
11444;BME280;5778;47.856;12.154;2023-02-15T07:06:43;97632.09;;;0.02;100.00
11444;BME280;5778;47.856;12.154;2023-02-15T07:09:10;97630.19;;;0.04;100.00
11444;BME280;5778;47.856;12.154;2023-02-15T07:11:39;97635.41;;;0.38;100.00
11444;BME280;5778;47.856;12.154;2023-02-15T07:14:24;97633.41;;;0.32;100.00
11444;BME280;5778;47.856;12.154;2023-02-15T07:16:50;97639.25;;;0.59;100.00
11444;BME280;5778;47.856;12.154;2023-02-15T07:19:17;97629.94;;;0.65;100.00
11444;BME280;5778;47.856;12.154;2023-02-15T07:21:44;97633.59;;;0.80;100.00
11444;BME280;5778;47.856;12.154;2023-02-15T07:24:12;97632.09;;;0.69;100.00
11444;BME280;5778;47.856;12.154;2023-02-15T07:26:40;97630.44;;;0.60;100.00
11444;BME280;5778;47.856;12.154;2023-02-15T07:29:07;97622.28;;;0.71;100.00
11444;BME280;5778;47.856;12.154;2023-02-15T07:31:33;97633.88;;;0.69;100.00
11444;BME280;5778;47.856;12.154;2023-02-15T07:34:00;97633.28;;;0.91;100.00
11444;BME280;5778;47.856;12.154;2023-02-15T07:36:27;97630.69;;;0.83;100.00
11444;BME280;5778;47.856;12.154;2023-02-15T07:38:54;97625.94;;;0.86;100.00
11444;BME280;5778;47.856;12.154;2023-02-15T07:41:21;97627.59;;;0.95;100.00
11444;BME280;5778;47.856;12.154;2023-02-15T07:43:50;97630.22;;;0.95;100.00
11444;BME280;5778;47.856;12.154;2023-02-15T07:46:17;97630.38;;;1.02;100.00
11444;BME280;5778;47.856;12.154;2023-02-15T07:48:46;97633.00;;;0.94;100.00
11444;BME280;5778;47.856;12.154;2023-02-15T07:51:14;97625.50;;;1.23;100.00
11444;BME280;5778;47.856;12.154;2023-02-15T07:53:41;97626.78;;;1.19;100.00
11444;BME280;5778;47.856;12.154;2023-02-15T07:56:10;97629.09;;;1.30;100.00
11444;BME280;5778;47.856;12.154;2023-02-15T07:58:37;97631.38;;;1.25;100.00
11444;BME280;5778;47.856;12.154;2023-02-15T08:01:20;97629.25;;;1.20;100.00
11444;BME280;5778;47.856;12.154;2023-02-15T08:03:49;97627.13;;;1.16;100.00
11444;BME280;5778;47.856;12.154;2023-02-15T08:06:16;97625.16;;;1.10;100.00
11444;BME280;5778;47.856;12.154;2023-02-15T08:08:43;97632.53;;;1.14;100.00
11444;BME280;5778;47.856;12.154;2023-02-15T08:11:16;97618.63;;;1.30;100.00
11444;BME280;5778;47.856;12.154;2023-02-15T08:13:55;97627.31;;;1.54;100.00
11444;BME280;5778;47.856;12.154;2023-02-15T08:16:29;97630.09;;;1.29;100.00
11444;BME280;5778;47.856;12.154;2023-02-15T08:18:58;97629.38;;;1.03;100.00
11444;BME280;5778;47.856;12.154;2023-02-15T08:21:26;97620.72;;;1.02;100.00
11444;BME280;5778;47.856;12.154;2023-02-15T08:23:54;97624.75;;;0.73;100.00
11444;BME280;5778;47.856;12.154;2023-02-15T08:26:22;97626.72;;;0.71;100.00
11444;BME280;5778;47.856;12.154;2023-02-15T08:28:50;97617.53;;;0.67;100.00
11444;BME280;5778;47.856;12.154;2023-02-15T08:31:18;97609.97;;;0.56;100.00
11444;BME280;5778;47.856;12.154;2023-02-15T08:33:47;97621.19;;;0.90;100.00
11444;BME280;5778;47.856;12.154;2023-02-15T08:36:16;97616.66;;;1.24;100.00
11444;BME280;5778;47.856;12.154;2023-02-15T08:38:44;97612.72;;;1.28;100.00
11444;BME280;5778;47.856;12.154;2023-02-15T08:41:13;97609.13;;;1.45;100.00
11444;BME280;5778;47.856;12.154;2023-02-15T08:43:40;97606.53;;;1.53;100.00
11444;BME280;5778;47.856;12.154;2023-02-15T08:46:10;97610.56;;;1.71;100.00
11444;BME280;5778;47.856;12.154;2023-02-15T08:48:38;97600.91;;;1.72;100.00
11444;BME280;5778;47.856;12.154;2023-02-15T08:51:09;97606.50;;;1.61;100.00
11444;BME280;5778;47.856;12.154;2023-02-15T08:53:38;97607.13;;;1.87;100.00
11444;BME280;5778;47.856;12.154;2023-02-15T08:56:06;97604.31;;;1.96;100.00
11444;BME280;5778;47.856;12.154;2023-02-15T08:58:33;97605.22;;;2.27;100.00
11444;BME280;5778;47.856;12.154;2023-02-15T09:01:01;97604.13;;;2.06;100.00
11444;BME280;5778;47.856;12.154;2023-02-15T09:03:34;97600.84;;;2.04;100.00
11444;BME280;5778;47.856;12.154;2023-02-15T09:06:01;97606.44;;;2.09;100.00
11444;BME280;5778;47.856;12.154;2023-02-15T09:08:29;97601.84;;;2.03;100.00
11444;BME280;5778;47.856;12.154;2023-02-15T09:11:05;97606.81;;;2.36;100.00
11444;BME280;5778;47.856;12.154;2023-02-15T09:13:32;97605.63;;;2.47;100.00
11444;BME280;5778;47.856;12.154;2023-02-15T09:16:00;97603.31;;;2.52;100.00
11444;BME280;5778;47.856;12.154;2023-02-15T09:18:32;97610.34;;;2.13;100.00
11444;BME280;5778;47.856;12.154;2023-02-15T09:21:05;97599.66;;;2.14;100.00
11444;BME280;5778;47.856;12.154;2023-02-15T09:23:34;97603.75;;;2.17;100.00
11444;BME280;5778;47.856;12.154;2023-02-15T09:26:03;97605.34;;;2.34;100.00
11444;BME280;5778;47.856;12.154;2023-02-15T09:28:30;97593.94;;;2.88;100.00
11444;BME280;5778;47.856;12.154;2023-02-15T09:31:05;97600.22;;;3.09;100.00
11444;BME280;5778;47.856;12.154;2023-02-15T09:33:33;97597.31;;;2.96;100.00
11444;BME280;5778;47.856;12.154;2023-02-15T09:36:02;97596.72;;;3.17;100.00
11444;BME280;5778;47.856;12.154;2023-02-15T09:38:29;97595.66;;;3.26;100.00
11444;BME280;5778;47.856;12.154;2023-02-15T09:41:07;97598.03;;;2.90;100.00
11444;BME280;5778;47.856;12.154;2023-02-15T09:43:42;97598.31;;;2.95;100.00
11444;BME280;5778;47.856;12.154;2023-02-15T09:46:22;97600.59;;;3.21;100.00
11444;BME280;5778;47.856;12.154;2023-02-15T09:48:58;97592.72;;;3.21;100.00
11444;BME280;5778;47.856;12.154;2023-02-15T09:54:39;97589.75;;;3.24;100.00
11444;BME280;5778;47.856;12.154;2023-02-15T09:57:21;97589.47;;;3.41;100.00
11444;BME280;5778;47.856;12.154;2023-02-15T10:00:01;97585.75;;;3.50;100.00
11444;BME280;5778;47.856;12.154;2023-02-15T10:02:54;97588.78;;;3.62;100.00
11444;BME280;5778;47.856;12.154;2023-02-15T10:05:34;97587.16;;;3.61;100.00
11444;BME280;5778;47.856;12.154;2023-02-15T10:08:24;97590.09;;;3.43;100.00
11444;BME280;5778;47.856;12.154;2023-02-15T10:11:02;97582.94;;;2.62;100.00
11444;BME280;5778;47.856;12.154;2023-02-15T10:13:53;97583.13;;;2.83;100.00
11444;BME280;5778;47.856;12.154;2023-02-15T10:16:31;97575.03;;;3.15;100.00
11444;BME280;5778;47.856;12.154;2023-02-15T10:19:04;97577.50;;;3.76;100.00
11444;BME280;5778;47.856;12.154;2023-02-15T10:21:46;97578.25;;;3.99;100.00
11444;BME280;5778;47.856;12.154;2023-02-15T10:24:44;97566.53;;;4.16;100.00
11444;BME280;5778;47.856;12.154;2023-02-15T10:27:19;97571.16;;;4.43;100.00
11444;BME280;5778;47.856;12.154;2023-02-15T10:29:58;97571.69;;;4.53;100.00
11444;BME280;5778;47.856;12.154;2023-02-15T10:32:31;97573.25;;;4.83;100.00
11444;BME280;5778;47.856;12.154;2023-02-15T10:35:01;97567.00;;;4.69;100.00
11444;BME280;5778;47.856;12.154;2023-02-15T10:37:42;97566.47;;;4.74;100.00
11444;BME280;5778;47.856;12.154;2023-02-15T10:40:18;97559.22;;;4.97;100.00
11444;BME280;5778;47.856;12.154;2023-02-15T10:42:58;97557.69;;;4.88;100.00
11444;BME280;5778;47.856;12.154;2023-02-15T10:45:36;97546.06;;;4.97;100.00
11444;BME280;5778;47.856;12.154;2023-02-15T10:48:20;97554.34;;;5.15;100.00
11444;BME280;5778;47.856;12.154;2023-02-15T10:50:50;97552.28;;;5.10;100.00
11444;BME280;5778;47.856;12.154;2023-02-15T10:53:26;97551.19;;;5.26;100.00
11444;BME280;5778;47.856;12.154;2023-02-15T10:56:08;97544.53;;;5.78;100.00
11444;BME280;5778;47.856;12.154;2023-02-15T10:58:49;97537.19;;;6.01;100.00
11444;BME280;5778;47.856;12.154;2023-02-15T11:01:27;97530.81;;;6.23;100.00
11444;BME280;5778;47.856;12.154;2023-02-15T11:06:59;97518.16;;;6.46;100.00
11444;BME280;5778;47.856;12.154;2023-02-15T11:09:36;97519.59;;;6.49;100.00
11444;BME280;5778;47.856;12.154;2023-02-15T11:12:08;97510.63;;;6.50;100.00
11444;BME280;5778;47.856;12.154;2023-02-15T11:14:44;97519.56;;;6.42;100.00
11444;BME280;5778;47.856;12.154;2023-02-15T11:17:18;97508.59;;;6.52;100.00
11444;BME280;5778;47.856;12.154;2023-02-15T11:19:54;97499.53;;;6.67;100.00
11444;BME280;5778;47.856;12.154;2023-02-15T11:22:25;97502.81;;;6.76;100.00
11444;BME280;5778;47.856;12.154;2023-02-15T11:24:52;97495.72;;;7.02;100.00
11444;BME280;5778;47.856;12.154;2023-02-15T11:27:22;97491.91;;;7.24;100.00
11444;BME280;5778;47.856;12.154;2023-02-15T11:29:59;97491.91;;;7.24;100.00
11444;BME280;5778;47.856;12.154;2023-02-15T11:32:32;97483.34;;;7.55;100.00
11444;BME280;5778;47.856;12.154;2023-02-15T11:35:03;97479.88;;;7.41;100.00
11444;BME280;5778;47.856;12.154;2023-02-15T11:37:40;97485.16;;;7.61;100.00
11444;BME280;5778;47.856;12.154;2023-02-15T11:40:17;97479.44;;;7.83;100.00
11444;BME280;5778;47.856;12.154;2023-02-15T11:42:49;97477.53;;;8.10;100.00
11444;BME280;5778;47.856;12.154;2023-02-15T11:45:24;97471.06;;;7.86;100.00
11444;BME280;5778;47.856;12.154;2023-02-15T11:47:54;97466.19;;;7.90;100.00
11444;BME280;5778;47.856;12.154;2023-02-15T11:50:23;97465.91;;;8.11;100.00
11444;BME280;5778;47.856;12.154;2023-02-15T11:52:56;97459.25;;;8.02;100.00
11444;BME280;5778;47.856;12.154;2023-02-15T11:55:25;97460.56;;;8.37;100.00
11444;BME280;5778;47.856;12.154;2023-02-15T11:58:00;97453.31;;;8.06;100.00
11444;BME280;5778;47.856;12.154;2023-02-15T12:00:35;97451.81;;;8.17;100.00
11444;BME280;5778;47.856;12.154;2023-02-15T12:03:13;97446.22;;;8.51;100.00
11444;BME280;5778;47.856;12.154;2023-02-15T12:05:47;97438.50;;;8.49;100.00
11444;BME280;5778;47.856;12.154;2023-02-15T12:08:19;97437.34;;;8.70;100.00
11444;BME280;5778;47.856;12.154;2023-02-15T12:11:00;97441.19;;;8.80;100.00
11444;BME280;5778;47.856;12.154;2023-02-15T12:13:30;97431.88;;;8.96;100.00
11444;BME280;5778;47.856;12.154;2023-02-15T12:15:59;97425.22;;;9.60;100.00
11444;BME280;5778;47.856;12.154;2023-02-15T12:18:37;97419.66;;;9.86;100.00
11444;BME280;5778;47.856;12.154;2023-02-15T12:21:07;97424.59;;;10.01;100.00
11444;BME280;5778;47.856;12.154;2023-02-15T12:23:42;97419.94;;;9.96;100.00
11444;BME280;5778;47.856;12.154;2023-02-15T12:26:10;97414.75;;;10.08;100.00
11444;BME280;5778;47.856;12.154;2023-02-15T12:28:40;97409.88;;;10.05;100.00
11444;BME280;5778;47.856;12.154;2023-02-15T12:31:20;97404.13;;;10.37;100.00
11444;BME280;5778;47.856;12.154;2023-02-15T12:33:51;97402.34;;;10.49;100.00
11444;BME280;5778;47.856;12.154;2023-02-15T12:36:20;97403.75;;;10.52;100.00
11444;BME280;5778;47.856;12.154;2023-02-15T12:39:15;97400.56;;;10.14;100.00
11444;BME280;5778;47.856;12.154;2023-02-15T12:41:45;97392.97;;;10.47;100.00
11444;BME280;5778;47.856;12.154;2023-02-15T12:44:18;97396.34;;;10.83;100.00
11444;BME280;5778;47.856;12.154;2023-02-15T12:46:57;97396.63;;;11.05;100.00
11444;BME280;5778;47.856;12.154;2023-02-15T12:49:27;97387.94;;;10.98;100.00
11444;BME280;5778;47.856;12.154;2023-02-15T12:51:56;97386.22;;;11.15;100.00
11444;BME280;5778;47.856;12.154;2023-02-15T12:54:43;97389.00;;;11.20;100.00
11444;BME280;5778;47.856;12.154;2023-02-15T12:57:20;97384.50;;;11.32;100.00
11444;BME280;5778;47.856;12.154;2023-02-15T12:59:52;97375.19;;;11.00;100.00
11444;BME280;5778;47.856;12.154;2023-02-15T13:02:30;97372.72;;;11.28;100.00
11444;BME280;5778;47.856;12.154;2023-02-15T13:05:14;97376.53;;;11.66;100.00
11444;BME280;5778;47.856;12.154;2023-02-15T13:07:48;97372.00;;;12.01;100.00
11444;BME280;5778;47.856;12.154;2023-02-15T13:10:23;97369.47;;;11.37;98.42
11444;BME280;5778;47.856;12.154;2023-02-15T13:12:52;97365.16;;;11.94;100.00
11444;BME280;5778;47.856;12.154;2023-02-15T13:15:31;97361.88;;;12.71;94.06
11444;BME280;5778;47.856;12.154;2023-02-15T13:18:01;97352.44;;;12.80;94.42
11444;BME280;5778;47.856;12.154;2023-02-15T13:20:32;97354.00;;;13.25;83.89
11444;BME280;5778;47.856;12.154;2023-02-15T13:23:04;97350.75;;;13.07;82.88
11444;BME280;5778;47.856;12.154;2023-02-15T13:25:40;97341.75;;;12.80;82.16
11444;BME280;5778;47.856;12.154;2023-02-15T13:28:14;97343.56;;;12.91;85.10
11444;BME280;5778;47.856;12.154;2023-02-15T13:30:45;97339.44;;;13.49;76.83